Time;durP1;ratioP1;P1;durP2;ratioP2;P2;SDS_P1;SDS_P2;PMS_P1;PMS_P2;Temp;Humidity;BMP_temperature;BMP_pressure;BME280_temperature;BME280_humidity;BME280_pressure;Samples;Min_cycle;Max_cycle;Signal;HPM_P1;HPM_P2
2023/11/22 00:01:19;;;;;;;2.17;1.80;;;2.80;99.90;;;;;;5052809;28;20344;-49
2023/11/22 00:03:46;;;;;;;2.53;1.60;;;2.70;99.90;;;;;;5035617;28;20215;-47
2023/11/22 00:06:14;;;;;;;2.27;1.67;;;2.80;99.90;;;;;;5061047;28;20195;-49
2023/11/22 00:08:41;;;;;;;3.77;1.90;;;2.70;99.90;;;;;;5051470;28;20683;-53
2023/11/22 00:11:09;;;;;;;1.93;1.73;;;2.60;99.90;;;;;;5063870;28;20202;-52
2023/11/22 00:13:36;;;;;;;1.90;1.30;;;2.50;99.90;;;;;;5061523;28;20684;-52
2023/11/22 00:16:03;;;;;;;2.30;1.77;;;2.50;99.90;;;;;;5053454;28;20413;-53
2023/11/22 00:18:30;;;;;;;2.00;1.80;;;2.50;99.90;;;;;;5030678;28;20726;-53
2023/11/22 00:20:59;;;;;;;1.80;1.70;;;2.50;99.90;;;;;;5059942;28;20209;-51
2023/11/22 00:23:29;;;;;;;1.70;1.40;;;2.50;99.90;;;;;;5063778;28;20687;-53
2023/11/22 00:25:57;;;;;;;2.43;1.80;;;2.50;99.90;;;;;;5062123;28;20248;-50
2023/11/22 00:28:24;;;;;;;2.07;1.90;;;2.60;99.90;;;;;;5064115;28;20198;-51
2023/11/22 00:30:51;;;;;;;2.63;2.10;;;2.60;99.90;;;;;;5052143;28;20434;-51
2023/11/22 00:33:19;;;;;;;2.83;1.73;;;2.60;99.90;;;;;;5037371;28;20332;-50
2023/11/22 00:35:45;;;;;;;2.60;2.40;;;2.60;99.90;;;;;;5058746;28;20194;-50
2023/11/22 00:38:13;;;;;;;4.37;2.40;;;2.60;99.90;;;;;;5062450;28;20194;-46
2023/11/22 00:40:42;;;;;;;3.73;2.30;;;2.60;99.90;;;;;;5061073;28;20274;-48
2023/11/22 00:43:09;;;;;;;2.53;2.07;;;2.60;99.90;;;;;;5063126;28;20211;-46
2023/11/22 00:45:36;;;;;;;4.17;2.37;;;2.50;99.90;;;;;;5061596;28;20197;-52
2023/11/22 00:48:03;;;;;;;3.10;2.27;;;2.20;99.90;;;;;;5054501;28;20875;-49
2023/11/22 00:50:29;;;;;;;3.27;2.10;;;2.10;99.90;;;;;;5037660;28;20209;-52
2023/11/22 00:52:56;;;;;;;2.80;2.00;;;2.00;99.90;;;;;;5055488;28;20290;-50
2023/11/22 00:55:23;;;;;;;4.83;2.03;;;2.00;99.90;;;;;;5063724;28;20264;-50
2023/11/22 00:57:51;;;;;;;2.50;1.90;;;2.00;99.90;;;;;;5060135;28;20190;-49
2023/11/22 01:00:18;;;;;;;4.67;2.70;;;1.90;99.90;;;;;;5062013;28;20199;-51
2023/11/22 01:02:45;;;;;;;3.40;2.17;;;1.80;99.90;;;;;;5050388;28;20234;-48
2023/11/22 01:05:12;;;;;;;2.07;1.80;;;1.80;99.90;;;;;;5035907;28;20541;-47
2023/11/22 01:07:39;;;;;;;3.80;2.10;;;1.80;99.90;;;;;;5060604;28;20187;-48
2023/11/22 01:10:07;;;;;;;2.27;1.97;;;1.80;99.90;;;;;;5062619;28;20276;-50
2023/11/22 01:12:35;;;;;;;2.97;2.20;;;1.80;99.90;;;;;;5058705;28;20222;-53
2023/11/22 01:15:03;;;;;;;3.63;2.13;;;1.80;99.90;;;;;;5061846;28;20732;-47
2023/11/22 01:17:31;;;;;;;3.43;2.40;;;1.80;99.90;;;;;;5059179;28;20221;-51
2023/11/22 01:19:59;;;;;;;4.17;2.43;;;1.80;99.90;;;;;;5056338;28;20195;-48
2023/11/22 01:22:27;;;;;;;2.17;1.93;;;1.70;99.90;;;;;;5035951;28;21053;-52
2023/11/22 01:24:54;;;;;;;4.93;2.23;;;1.60;99.90;;;;;;5059706;28;20233;-47
2023/11/22 01:27:21;;;;;;;2.33;1.57;;;1.60;99.90;;;;;;5047686;28;20229;-52
2023/11/22 01:29:47;;;;;;;3.80;2.20;;;1.60;99.90;;;;;;5059542;28;20602;-54
2023/11/22 01:32:16;;;;;;;2.60;2.37;;;1.60;99.90;;;;;;5057105;28;20194;-49
2023/11/22 01:34:43;;;;;;;2.97;2.07;;;1.60;99.90;;;;;;5053142;28;20219;-54
2023/11/22 01:37:10;;;;;;;2.87;2.37;;;1.60;99.90;;;;;;5030343;28;20923;-55
2023/11/22 01:39:41;;;;;;;4.17;1.90;;;1.60;99.90;;;;;;5062161;28;20252;-52
2023/11/22 01:42:09;;;;;;;3.67;1.90;;;1.60;99.90;;;;;;5058023;28;20867;-53
2023/11/22 01:44:36;;;;;;;5.40;1.93;;;1.60;99.90;;;;;;5061255;28;20272;-51
2023/11/22 01:47:05;;;;;;;3.80;2.40;;;1.60;99.90;;;;;;5057945;28;20198;-51
2023/11/22 01:49:35;;;;;;;2.37;2.13;;;1.50;99.90;;;;;;5049043;28;20248;-50
2023/11/22 01:52:03;;;;;;;9.33;2.17;;;1.60;99.90;;;;;;5032475;28;20206;-48
2023/11/22 01:54:31;;;;;;;3.67;2.17;;;1.50;99.90;;;;;;5060684;28;20324;-55
2023/11/22 01:56:58;;;;;;;4.43;2.37;;;1.50;99.90;;;;;;5058852;28;20194;-53
2023/11/22 01:59:26;;;;;;;3.03;2.50;;;1.50;99.90;;;;;;5059871;28;20194;-56
2023/11/22 02:01:54;;;;;;;2.47;1.90;;;1.40;99.90;;;;;;5059684;28;20684;-53
2023/11/22 02:04:21;;;;;;;2.57;2.13;;;1.50;99.90;;;;;;5051582;28;20226;-49
2023/11/22 02:06:50;;;;;;;2.93;2.00;;;1.40;99.90;;;;;;5058688;28;20198;-49
2023/11/22 02:09:17;;;;;;;2.90;2.10;;;1.40;99.90;;;;;;5044316;28;20210;-49
2023/11/22 02:11:45;;;;;;;5.00;2.20;;;1.40;99.90;;;;;;5062293;28;20202;-51
2023/11/22 02:14:12;;;;;;;4.27;2.27;;;1.40;99.90;;;;;;5058540;28;20823;-49
2023/11/22 02:16:40;;;;;;;4.40;2.43;;;1.50;99.90;;;;;;5062163;28;20191;-51
2023/11/22 02:19:08;;;;;;;2.57;2.33;;;1.50;99.90;;;;;;5046869;28;20305;-49
2023/11/22 02:21:34;;;;;;;3.57;2.10;;;1.50;99.90;;;;;;5049579;28;20198;-50
2023/11/22 02:24:03;;;;;;;2.33;2.13;;;1.60;99.90;;;;;;5033421;28;20222;-49
2023/11/22 02:26:30;;;;;;;3.00;2.10;;;1.50;99.90;;;;;;5058429;28;20218;-54
2023/11/22 02:28:58;;;;;;;2.97;2.67;;;1.40;99.90;;;;;;5058179;28;20423;-50
2023/11/22 02:31:27;;;;;;;3.13;2.00;;;1.30;99.90;;;;;;5059417;28;20191;-51
2023/11/22 02:33:55;;;;;;;3.23;2.10;;;1.30;99.90;;;;;;5057188;28;20214;-50
2023/11/22 02:36:21;;;;;;;6.60;2.37;;;1.20;99.90;;;;;;5053451;28;20204;-50
2023/11/22 02:38:48;;;;;;;2.30;2.10;;;1.10;99.90;;;;;;5030097;28;20187;-50
2023/11/22 02:41:16;;;;;;;2.40;1.83;;;1.20;99.90;;;;;;5061853;28;20202;-49
2023/11/22 02:43:43;;;;;;;2.73;1.93;;;1.20;99.90;;;;;;5057598;28;20210;-49
2023/11/22 02:46:10;;;;;;;2.63;2.37;;;1.20;99.90;;;;;;5060335;28;20202;-51
2023/11/22 02:48:37;;;;;;;4.37;2.10;;;1.20;99.90;;;;;;5058043;28;20195;-49
2023/11/22 02:51:06;;;;;;;3.73;2.40;;;1.20;99.90;;;;;;5050480;28;20784;-49
2023/11/22 02:53:33;;;;;;;3.97;2.47;;;1.20;99.90;;;;;;5047631;28;20242;-49
2023/11/22 02:56:00;;;;;;;2.50;2.17;;;1.20;99.90;;;;;;5048262;28;20218;-52
2023/11/22 02:58:28;;;;;;;2.40;1.77;;;1.10;99.90;;;;;;5059500;28;20699;-50
2023/11/22 03:00:57;;;;;;;2.60;2.30;;;1.10;99.90;;;;;;5058679;28;20346;-50
2023/11/22 03:03:24;;;;;;;1.97;1.83;;;1.10;99.90;;;;;;5061059;28;20307;-52
2023/11/22 03:05:51;;;;;;;3.77;2.80;;;1.00;99.90;;;;;;5057127;28;20186;-50
2023/11/22 03:08:18;;;;;;;2.73;2.17;;;0.90;99.90;;;;;;5050663;28;20207;-50
2023/11/22 03:10:44;;;;;;;2.83;1.90;;;1.00;99.90;;;;;;5031505;28;20291;-54
2023/11/22 03:13:12;;;;;;;2.97;2.27;;;0.90;99.90;;;;;;5058975;28;20226;-52
2023/11/22 03:15:40;;;;;;;3.07;2.43;;;0.90;99.90;;;;;;5057830;28;20272;-47
2023/11/22 03:18:09;;;;;;;4.13;2.23;;;0.90;99.90;;;;;;5058459;28;20224;-48
2023/11/22 03:20:37;;;;;;;2.87;1.67;;;1.00;99.90;;;;;;5056017;28;20203;-48
2023/11/22 03:23:04;;;;;;;5.60;2.13;;;0.90;99.90;;;;;;5048391;28;20336;-52
2023/11/22 03:25:31;;;;;;;2.23;2.03;;;0.90;99.90;;;;;;5030170;28;20791;-49
2023/11/22 03:27:59;;;;;;;2.60;2.40;;;0.90;99.90;;;;;;5057207;28;20781;-52
2023/11/22 03:30:25;;;;;;;3.73;2.20;;;1.00;99.90;;;;;;5059701;28;20613;-50
2023/11/22 03:32:54;;;;;;;2.47;2.10;;;1.00;99.90;;;;;;5057593;28;20295;-50
2023/11/22 03:35:21;;;;;;;2.20;2.00;;;1.00;99.90;;;;;;5059664;28;20279;-51
2023/11/22 03:37:48;;;;;;;3.87;1.97;;;1.00;99.90;;;;;;5057552;28;20252;-54
2023/11/22 03:40:15;;;;;;;2.80;2.10;;;1.00;99.90;;;;;;5052639;28;20213;-53
2023/11/22 03:42:42;;;;;;;2.87;2.10;;;1.00;99.90;;;;;;5032934;28;20218;-54
2023/11/22 03:45:10;;;;;;;5.23;2.17;;;1.00;99.90;;;;;;5061108;28;20244;-51
2023/11/22 03:47:37;;;;;;;3.63;2.00;;;1.00;99.90;;;;;;5055972;28;20226;-54
2023/11/22 03:50:07;;;;;;;3.00;2.07;;;0.90;99.90;;;;;;5059146;28;20260;-52
2023/11/22 03:52:34;;;;;;;2.23;2.03;;;0.90;99.90;;;;;;5058436;28;20273;-51
2023/11/22 03:55:02;;;;;;;2.50;2.30;;;0.90;99.90;;;;;;5051332;28;20578;-53
2023/11/22 03:57:29;;;;;;;2.17;1.97;;;0.90;99.90;;;;;;5031139;28;20641;-53
2023/11/22 03:59:55;;;;;;;2.33;2.10;;;0.90;99.90;;;;;;5059033;28;20202;-54
2023/11/22 04:02:22;;;;;;;6.70;2.50;;;0.80;99.90;;;;;;5060413;28;20218;-53
2023/11/22 04:04:49;;;;;;;2.17;1.83;;;0.80;99.90;;;;;;5057274;28;20272;-53
2023/11/22 04:07:18;;;;;;;4.87;2.50;;;0.80;99.90;;;;;;5060557;28;20269;-55
2023/11/22 04:09:45;;;;;;;2.83;2.10;;;0.80;99.90;;;;;;5047997;28;20283;-52
2023/11/22 04:12:12;;;;;;;4.33;2.10;;;0.80;99.90;;;;;;5035777;28;20207;-52
2023/11/22 04:14:39;;;;;;;2.83;2.37;;;0.90;99.90;;;;;;5058624;28;20237;-54
2023/11/22 04:17:06;;;;;;;6.70;1.80;;;1.00;99.90;;;;;;5060047;28;20217;-52
2023/11/22 04:19:32;;;;;;;5.13;2.70;;;1.00;99.90;;;;;;5062302;28;20195;-52
2023/11/22 04:22:00;;;;;;;3.93;2.20;;;0.90;99.90;;;;;;5061896;28;20203;-55
2023/11/22 04:24:28;;;;;;;2.53;2.20;;;0.80;99.90;;;;;;5063763;28;21006;-54
2023/11/22 04:26:55;;;;;;;2.70;2.50;;;0.80;99.90;;;;;;5025211;28;20219;-54
2023/11/22 04:29:21;;;;;;;5.27;2.33;;;0.80;99.90;;;;;;5061307;28;20616;-56
2023/11/22 04:31:49;;;;;;;3.83;2.27;;;0.90;99.90;;;;;;5059536;28;20195;-56
2023/11/22 04:34:15;;;;;;;2.87;1.73;;;0.90;99.90;;;;;;5052743;28;20680;-50
2023/11/22 04:36:42;;;;;;;4.17;2.90;;;0.70;99.90;;;;;;5060161;28;20191;-54
2023/11/22 04:39:10;;;;;;;1.80;1.70;;;0.70;99.90;;;;;;5057476;28;20621;-53
2023/11/22 04:41:38;;;;;;;2.37;2.10;;;0.70;99.90;;;;;;5050887;28;20291;-55
2023/11/22 04:44:05;;;;;;;2.67;2.07;;;0.60;99.90;;;;;;5034413;28;20304;-52
2023/11/22 04:46:32;;;;;;;3.33;2.40;;;0.70;99.90;;;;;;5061256;28;20731;-54
2023/11/22 04:49:00;;;;;;;3.07;2.53;;;0.80;99.90;;;;;;5061916;28;20203;-54
2023/11/22 04:51:29;;;;;;;2.47;2.27;;;0.80;99.90;;;;;;5060219;28;20198;-54
2023/11/22 04:53:55;;;;;;;3.97;2.40;;;0.80;99.90;;;;;;5062576;28;20222;-53
2023/11/22 04:56:22;;;;;;;2.47;2.27;;;0.90;99.90;;;;;;5062497;28;20206;-54
2023/11/22 04:58:50;;;;;;;3.30;1.87;;;0.90;99.90;;;;;;5027937;28;21798;-53
2023/11/22 05:01:17;;;;;;;2.83;2.57;;;0.90;99.90;;;;;;5052447;28;20214;-54
2023/11/22 05:03:44;;;;;;;3.50;2.17;;;0.80;99.90;;;;;;5061528;28;20214;-50
2023/11/22 05:06:11;;;;;;;2.80;1.93;;;0.80;99.90;;;;;;5056283;28;20226;-54
2023/11/22 05:08:38;;;;;;;2.97;2.37;;;0.70;99.90;;;;;;5060646;28;20244;-53
2023/11/22 05:11:04;;;;;;;2.37;2.10;;;0.70;99.90;;;;;;5063166;28;20256;-49
2023/11/22 05:13:31;;;;;;;2.10;1.90;;;0.60;99.90;;;;;;5050498;28;20747;-54
2023/11/22 05:16:00;;;;;;;3.50;2.83;;;0.50;99.90;;;;;;5035286;28;20225;-52
2023/11/22 05:18:27;;;;;;;3.47;2.07;;;0.60;99.90;;;;;;5056486;28;20505;-53
2023/11/22 05:20:54;;;;;;;3.77;2.60;;;0.70;99.90;;;;;;5056535;28;20206;-53
2023/11/22 05:23:21;;;;;;;2.67;2.23;;;0.80;99.90;;;;;;5051282;28;20226;-51
2023/11/22 05:25:48;;;;;;;3.67;2.20;;;0.80;99.90;;;;;;5061356;28;20629;-54
2023/11/22 05:28:15;;;;;;;2.83;2.20;;;0.80;99.90;;;;;;5055279;28;20212;-49
2023/11/22 05:30:42;;;;;;;2.60;2.40;;;0.80;99.90;;;;;;5026623;28;20753;-45
2023/11/22 05:33:10;;;;;;;2.87;2.30;;;0.80;99.90;;;;;;5054882;28;20268;-53
2023/11/22 05:35:37;;;;;;;3.10;2.70;;;0.90;99.90;;;;;;5055403;28;20211;-52
2023/11/22 05:38:04;;;;;;;4.30;2.83;;;0.80;99.90;;;;;;5045142;28;20277;-53
2023/11/22 05:40:31;;;;;;;5.20;2.73;;;0.80;99.90;;;;;;5061424;28;20454;-49
2023/11/22 05:42:58;;;;;;;3.13;2.57;;;0.70;99.90;;;;;;5061916;28;20242;-53
2023/11/22 05:45:25;;;;;;;2.77;2.57;;;0.60;99.90;;;;;;5035256;28;20430;-45
2023/11/22 05:47:51;;;;;;;3.87;2.37;;;0.60;99.90;;;;;;5063375;28;20209;-46
2023/11/22 05:50:20;;;;;;;3.23;2.50;;;0.60;99.90;;;;;;5049940;28;20183;-46
2023/11/22 05:52:46;;;;;;;2.83;2.40;;;0.50;99.90;;;;;;5055112;28;20252;-45
2023/11/22 05:55:14;;;;;;;3.33;2.30;;;0.50;99.90;;;;;;5050651;28;20207;-54
2023/11/22 05:57:41;;;;;;;3.30;2.60;;;0.40;99.90;;;;;;5062354;28;20195;-46
2023/11/22 06:00:09;;;;;;;6.10;2.63;;;0.40;99.90;;;;;;5040811;28;20206;-52
2023/11/22 06:02:37;;;;;;;3.73;2.50;;;0.30;99.90;;;;;;5058260;28;20214;-50
2023/11/22 06:05:05;;;;;;;2.70;2.50;;;0.20;99.90;;;;;;5060860;28;20206;-52
2023/11/22 06:07:33;;;;;;;3.77;2.30;;;0.10;99.90;;;;;;5047957;28;20893;-46
2023/11/22 06:10:01;;;;;;;3.13;2.60;;;0.10;99.90;;;;;;5053154;28;20210;-54
2023/11/22 06:12:28;;;;;;;3.53;2.60;;;0.10;99.90;;;;;;5057032;28;20916;-47
2023/11/22 06:14:55;;;;;;;2.67;2.37;;;0.10;99.90;;;;;;5055597;28;20619;-51
2023/11/22 06:17:22;;;;;;;3.57;2.50;;;0.10;99.90;;;;;;5032591;28;20939;-47
2023/11/22 06:19:48;;;;;;;5.17;2.60;;;0.20;99.90;;;;;;5062085;28;20190;-49
2023/11/22 06:22:16;;;;;;;3.07;2.77;;;0.10;99.90;;;;;;5044673;28;20198;-49
2023/11/22 06:24:47;;;;;;;3.23;2.43;;;0.10;99.90;;;;;;5052203;28;20222;-49
2023/11/22 06:27:15;;;;;;;4.90;2.53;;;0.20;99.90;;;;;;5056758;28;20278;-46
2023/11/22 06:29:44;;;;;;;6.97;2.97;;;0.20;99.90;;;;;;5062311;28;20748;-48
2023/11/22 06:32:11;;;;;;;3.27;2.93;;;0.20;99.90;;;;;;5033718;28;20207;-52
2023/11/22 06:34:38;;;;;;;5.60;3.70;;;0.30;99.90;;;;;;5062360;28;20297;-45
2023/11/22 06:37:06;;;;;;;5.27;2.90;;;0.30;99.90;;;;;;5059145;28;20523;-52
2023/11/22 06:39:33;;;;;;;3.83;2.97;;;0.30;99.90;;;;;;5049526;28;20285;-52
2023/11/22 06:42:02;;;;;;;4.33;3.20;;;0.20;99.90;;;;;;5048630;28;20202;-49
2023/11/22 06:44:29;;;;;;;4.00;3.30;;;0.10;99.90;;;;;;5054182;28;20807;-49
2023/11/22 06:46:56;;;;;;;5.20;3.77;;;0.10;99.90;;;;;;5057101;28;20501;-52
2023/11/22 06:49:22;;;;;;;4.37;3.97;;;0.10;99.90;;;;;;5037192;28;20206;-48
2023/11/22 06:51:49;;;;;;;7.90;4.30;;;0.10;99.90;;;;;;5049758;28;20279;-46
2023/11/22 06:54:16;;;;;;;8.53;6.13;;;0.10;99.90;;;;;;5053797;28;20298;-46
2023/11/22 06:56:43;;;;;;;4.73;4.00;;;0.10;99.90;;;;;;5051223;28;20234;-50
2023/11/22 06:59:11;;;;;;;7.20;4.53;;;0.20;99.90;;;;;;5050369;28;20272;-46
2023/11/22 07:01:39;;;;;;;8.07;5.20;;;0.20;99.90;;;;;;5059309;28;20202;-52
2023/11/22 07:04:06;;;;;;;4.73;4.23;;;0.20;99.90;;;;;;5017446;28;20223;-52
2023/11/22 07:06:33;;;;;;;7.80;4.10;;;0.30;99.90;;;;;;5046314;28;20207;-50
2023/11/22 07:09:00;;;;;;;6.17;4.30;;;0.40;99.90;;;;;;5044469;28;20316;-51
2023/11/22 07:11:30;;;;;;;5.07;4.57;;;0.40;99.90;;;;;;5039977;28;20222;-45
2023/11/22 07:13:57;;;;;;;7.30;4.53;;;0.40;99.90;;;;;;5045864;28;20233;-47
2023/11/22 07:16:25;;;;;;;5.27;4.30;;;0.40;99.90;;;;;;5056890;28;20692;-45
2023/11/22 07:18:52;;;;;;;5.00;4.30;;;0.40;99.90;;;;;;5033810;28;20211;-49
2023/11/22 07:21:20;;;;;;;6.70;4.17;;;0.40;99.90;;;;;;5055050;28;20277;-47
2023/11/22 07:23:47;;;;;;;4.90;3.77;;;0.50;99.90;;;;;;5054138;28;20218;-45
2023/11/22 07:26:15;;;;;;;4.83;3.93;;;0.50;99.90;;;;;;5047519;28;20257;-47
2023/11/22 07:28:42;;;;;;;6.23;3.83;;;0.50;99.90;;;;;;5044803;28;20206;-49
2023/11/22 07:31:09;;;;;;;4.60;3.83;;;0.60;99.90;;;;;;5059196;28;20194;-46
2023/11/22 07:33:38;;;;;;;5.73;4.10;;;0.60;99.90;;;;;;5046720;28;20237;-51
2023/11/22 07:36:06;;;;;;;5.00;4.33;;;0.70;99.90;;;;;;5044278;28;20210;-47
2023/11/22 07:38:33;;;;;;;6.47;4.40;;;0.70;99.90;;;;;;5059684;28;20194;-50
2023/11/22 07:41:00;;;;;;;5.43;4.23;;;0.70;99.90;;;;;;5051265;28;20477;-48
2023/11/22 07:43:27;;;;;;;6.83;4.63;;;0.70;99.90;;;;;;5052554;28;20275;-48
2023/11/22 07:45:54;;;;;;;4.70;3.87;;;0.80;99.90;;;;;;5046261;28;20347;-51
2023/11/22 07:48:22;;;;;;;4.70;4.20;;;0.80;99.90;;;;;;5059132;28;20260;-46
2023/11/22 07:50:51;;;;;;;5.07;4.03;;;0.90;99.90;;;;;;5020537;28;20221;-44
2023/11/22 07:53:18;;;;;;;5.00;4.33;;;0.90;99.90;;;;;;5052039;28;20512;-47
2023/11/22 07:55:45;;;;;;;8.17;4.83;;;1.00;99.90;;;;;;5053745;28;20966;-47
2023/11/22 07:58:12;;;;;;;6.07;4.60;;;1.10;99.90;;;;;;5056816;28;20634;-46
2023/11/22 08:00:41;;;;;;;4.30;3.83;;;1.10;99.90;;;;;;5047543;28;20196;-50
2023/11/22 08:03:09;;;;;;;5.87;3.80;;;1.20;99.90;;;;;;5063671;28;20214;-44
2023/11/22 08:05:36;;;;;;;6.93;4.43;;;1.20;99.90;;;;;;5026617;28;20206;-46
2023/11/22 08:08:07;;;;;;;5.87;4.57;;;1.20;99.90;;;;;;5061144;28;20274;-45
2023/11/22 08:10:34;;;;;;;7.30;4.43;;;1.30;99.90;;;;;;5063455;28;20205;-45
2023/11/22 08:13:02;;;;;;;5.33;4.43;;;1.30;99.90;;;;;;5044639;28;20210;-50
2023/11/22 08:15:31;;;;;;;7.13;4.93;;;1.40;99.90;;;;;;5057950;28;20217;-48
2023/11/22 08:17:58;;;;;;;6.50;4.10;;;1.40;99.90;;;;;;5056173;28;20195;-51
2023/11/22 08:20:25;;;;;;;10.00;5.60;;;1.40;99.90;;;;;;5035818;28;20205;-47
2023/11/22 08:22:52;;;;;;;7.50;4.77;;;1.30;99.90;;;;;;5052634;28;20305;-50
2023/11/22 08:25:20;;;;;;;6.83;5.33;;;1.30;99.90;;;;;;5062897;28;20513;-46
2023/11/22 08:27:47;;;;;;;6.13;4.83;;;1.40;99.90;;;;;;5049420;28;20672;-51
2023/11/22 08:30:15;;;;;;;8.63;5.20;;;1.40;99.90;;;;;;5056972;28;20199;-45
2023/11/22 08:32:43;;;;;;;5.60;5.03;;;1.40;99.90;;;;;;5051086;28;20222;-48
2023/11/22 08:35:10;;;;;;;9.23;6.17;;;1.40;99.90;;;;;;5036585;28;20565;-44
2023/11/22 08:37:42;;;;;;;11.27;6.63;;;1.40;99.90;;;;;;5055471;28;20191;-46
2023/11/22 08:40:11;;;;;;;7.40;5.77;;;1.50;99.90;;;;;;5059426;28;20958;-46
2023/11/22 08:42:40;;;;;;;7.03;6.03;;;1.60;99.90;;;;;;5051945;28;20223;-45
2023/11/22 08:45:09;;;;;;;10.90;6.17;;;1.60;99.90;;;;;;5052064;28;20278;-49
2023/11/22 08:47:36;;;;;;;7.43;5.97;;;1.60;99.90;;;;;;5052043;28;20249;-48
2023/11/22 08:50:05;;;;;;;7.13;6.03;;;1.60;99.90;;;;;;5028623;28;24955;-45
2023/11/22 08:52:32;;;;;;;10.13;6.73;;;1.60;99.90;;;;;;5052888;28;20222;-48
2023/11/22 08:55:00;;;;;;;7.20;5.60;;;1.60;99.90;;;;;;5058372;28;20562;-51
2023/11/22 08:57:27;;;;;;;7.67;6.30;;;1.70;99.90;;;;;;5052844;28;20215;-48
2023/11/22 08:59:56;;;;;;;8.33;6.77;;;1.70;99.90;;;;;;5053225;28;20260;-52
2023/11/22 09:02:22;;;;;;;8.33;5.97;;;1.80;99.90;;;;;;5057818;28;20207;-45
2023/11/22 09:04:49;;;;;;;10.20;6.47;;;1.80;99.90;;;;;;5055387;28;20638;-50
2023/11/22 09:07:16;;;;;;;7.43;6.07;;;1.90;99.90;;;;;;5021139;28;20442;-47
2023/11/22 09:09:43;;;;;;;8.13;6.10;;;1.90;99.90;;;;;;5062233;28;20252;-48
2023/11/22 09:12:12;;;;;;;8.37;6.17;;;1.90;99.90;;;;;;5050280;28;22985;-44
2023/11/22 09:14:41;;;;;;;10.47;6.00;;;1.90;99.90;;;;;;5064071;28;20201;-50
2023/11/22 09:17:10;;;;;;;7.17;5.93;;;2.00;99.90;;;;;;5040807;28;20233;-45
2023/11/22 09:19:37;;;;;;;8.60;6.33;;;2.00;99.90;;;;;;5050752;28;20191;-45
2023/11/22 09:22:06;;;;;;;9.73;6.40;;;2.10;99.90;;;;;;5030544;28;20531;-44
2023/11/22 09:24:33;;;;;;;8.93;6.27;;;2.10;99.90;;;;;;5052201;28;20572;-44
2023/11/22 09:27:03;;;;;;;8.47;5.97;;;2.10;99.90;;;;;;5058150;28;20195;-48
2023/11/22 09:29:30;;;;;;;12.50;6.13;;;2.20;99.90;;;;;;5054651;28;20206;-47
2023/11/22 09:31:56;;;;;;;7.60;6.00;;;2.20;99.90;;;;;;5046408;28;20213;-49
2023/11/22 09:34:24;;;;;;;7.50;6.07;;;2.30;99.90;;;;;;5054548;28;20226;-44
2023/11/22 09:36:51;;;;;;;7.03;5.80;;;2.30;99.90;;;;;;5028841;28;20263;-51
2023/11/22 09:39:21;;;;;;;8.40;5.93;;;2.30;99.90;;;;;;5046969;28;20191;-47
2023/11/22 09:41:48;;;;;;;8.80;6.00;;;2.30;99.90;;;;;;5055102;28;20195;-51
2023/11/22 09:44:16;;;;;;;9.10;6.63;;;2.40;99.90;;;;;;5044020;28;20712;-51
2023/11/22 09:46:43;;;;;;;10.90;6.23;;;2.50;99.90;;;;;;5053315;28;20195;-46
2023/11/22 09:49:22;;;;;;;9.80;6.40;;;2.50;99.90;;;;;;5051135;28;20207;-48
2023/11/22 09:51:52;;;;;;;9.07;6.80;;;2.60;99.90;;;;;;5060880;28;20582;-46
2023/11/22 09:54:20;;;;;;;10.67;7.27;;;2.60;99.90;;;;;;5023786;28;20276;-50
2023/11/22 09:56:50;;;;;;;9.87;6.60;;;2.70;99.90;;;;;;5075590;28;20247;-44
2023/11/22 09:59:19;;;;;;;7.40;6.17;;;2.70;99.90;;;;;;5044772;28;20202;-48
2023/11/22 10:01:46;;;;;;;10.33;6.30;;;2.70;99.90;;;;;;5053266;28;20194;-46
2023/11/22 10:04:13;;;;;;;8.57;6.30;;;2.80;99.90;;;;;;5053168;28;20226;-53
2023/11/22 10:06:40;;;;;;;8.77;6.33;;;2.80;99.90;;;;;;5053024;28;20673;-50
2023/11/22 10:09:09;;;;;;;12.57;6.97;;;2.90;99.90;;;;;;5028560;28;20645;-51
2023/11/22 10:11:36;;;;;;;9.57;6.33;;;2.90;99.90;;;;;;5052501;28;20603;-44
2023/11/22 10:14:03;;;;;;;9.80;6.50;;;2.90;99.90;;;;;;5047923;28;20238;-48
2023/11/22 10:16:30;;;;;;;11.40;7.00;;;3.00;99.90;;;;;;5052086;28;20218;-47
2023/11/22 10:18:58;;;;;;;8.10;6.53;;;3.00;99.90;;;;;;5043699;28;20215;-46
2023/11/22 10:21:28;;;;;;;8.83;6.27;;;3.10;99.90;;;;;;5047863;28;20314;-47
2023/11/22 10:23:56;;;;;;;16.07;7.47;;;3.20;99.90;;;;;;5055640;28;20229;-49
2023/11/22 10:26:24;;;;;;;10.17;6.93;;;3.20;99.90;;;;;;5023060;28;20577;-49
2023/11/22 10:28:52;;;;;;;9.47;6.73;;;3.30;99.90;;;;;;5048892;28;20211;-47
2023/11/22 10:31:19;;;;;;;9.83;6.80;;;3.30;99.90;;;;;;5053991;28;20674;-48
2023/11/22 10:33:47;;;;;;;9.77;6.03;;;3.40;99.90;;;;;;5036488;28;20203;-45
2023/11/22 10:36:14;;;;;;;7.10;5.70;;;3.50;99.90;;;;;;5055790;28;20249;-49
2023/11/22 10:38:42;;;;;;;7.93;5.73;;;3.50;99.90;;;;;;5057241;28;20198;-51
2023/11/22 10:41:10;;;;;;;9.00;5.70;;;3.50;99.90;;;;;;5034127;28;20218;-44
2023/11/22 10:43:39;;;;;;;10.23;5.83;;;3.60;99.90;;;;;;5036044;28;20258;-48
2023/11/22 10:46:06;;;;;;;6.80;5.40;;;3.60;99.90;;;;;;5045289;28;20202;-48
2023/11/22 10:48:33;;;;;;;6.53;5.80;;;3.70;99.90;;;;;;5054298;28;20644;-53
2023/11/22 10:51:03;;;;;;;6.00;4.87;;;3.70;99.90;;;;;;5038771;28;20821;-45
2023/11/22 10:53:34;;;;;;;8.33;5.07;;;3.70;99.90;;;;;;5057172;28;20222;-52
2023/11/22 10:56:06;;;;;;;9.27;5.27;;;3.80;99.90;;;;;;5035021;28;20293;-48
2023/11/22 10:58:35;;;;;;;5.50;4.70;;;3.80;99.90;;;;;;5049568;28;20213;-50
2023/11/22 11:01:07;;;;;;;5.87;4.33;;;3.80;99.90;;;;;;5051917;28;20660;-48
2023/11/22 11:03:41;;;;;;;6.37;4.33;;;3.90;99.90;;;;;;5052965;28;20627;-49
2023/11/22 11:06:13;;;;;;;6.47;4.47;;;4.00;99.90;;;;;;5052276;28;20194;-48
2023/11/22 11:08:43;;;;;;;4.47;4.07;;;4.00;99.90;;;;;;5050144;28;20680;-52
2023/11/22 11:11:10;;;;;;;5.20;4.03;;;4.00;99.90;;;;;;5029132;28;20207;-46
2023/11/22 11:13:36;;;;;;;5.40;3.37;;;4.00;99.90;;;;;;5047726;28;20303;-50
2023/11/22 11:16:06;;;;;;;5.27;3.40;;;4.00;99.90;;;;;;5058794;28;20549;-47
2023/11/22 11:18:34;;;;;;;6.57;3.13;;;4.00;99.90;;;;;;5050642;28;20202;-51
2023/11/22 11:21:10;;;;;;;4.37;3.27;;;4.10;99.90;;;;;;5045669;28;20202;-46
2023/11/22 11:23:40;;;;;;;5.47;3.23;;;4.20;99.90;;;;;;5051637;28;20233;-50
2023/11/22 11:26:16;;;;;;;6.00;3.23;;;4.20;99.90;;;;;;5028303;28;20205;-49
2023/11/22 11:28:44;;;;;;;5.70;3.47;;;4.20;99.90;;;;;;5051048;28;20872;-50
2023/11/22 11:31:14;;;;;;;4.37;2.90;;;4.20;99.90;;;;;;5060597;28;20262;-46
2023/11/22 11:33:58;;;;;;;7.27;2.90;;;4.30;99.90;;;;;;5054512;28;20283;-45
2023/11/22 11:36:27;;;;;;;3.20;2.90;;;4.40;99.90;;;;;;5049313;28;20250;-53
2023/11/22 11:38:56;;;;;;;4.20;2.80;;;4.40;99.90;;;;;;5056845;28;20266;-47
2023/11/22 11:41:27;;;;;;;5.13;3.20;;;4.40;99.90;;;;;;5029540;28;20257;-52
2023/11/22 11:43:56;;;;;;;6.20;2.73;;;4.40;99.90;;;;;;5062387;28;20225;-45
2023/11/22 11:46:25;;;;;;;2.50;2.17;;;4.50;99.90;;;;;;5052740;28;20207;-51
2023/11/22 11:48:54;;;;;;;6.03;2.27;;;4.50;99.90;;;;;;5052370;28;20213;-45
2023/11/22 11:51:24;;;;;;;4.67;2.70;;;4.50;99.90;;;;;;5051618;28;20198;-50
2023/11/22 11:53:51;;;;;;;4.70;2.30;;;4.60;99.90;;;;;;5052938;28;20698;-46
2023/11/22 11:56:18;;;;;;;5.03;2.37;;;4.60;99.90;;;;;;5038456;28;20265;-46
2023/11/22 11:58:46;;;;;;;3.00;2.47;;;4.60;99.90;;;;;;5058556;28;20190;-45
2023/11/22 12:01:13;;;;;;;5.00;2.40;;;4.70;99.90;;;;;;5054135;28;20614;-48
2023/11/22 12:03:42;;;;;;;4.20;2.27;;;4.70;99.90;;;;;;5047061;28;20210;-51
2023/11/22 12:06:09;;;;;;;3.47;2.40;;;4.70;99.90;;;;;;5056886;28;20284;-47
2023/11/22 12:08:36;;;;;;;2.80;1.77;;;4.70;99.90;;;;;;5048834;28;20199;-49
2023/11/22 12:11:04;;;;;;;3.87;2.20;;;4.70;99.90;;;;;;5035241;28;20203;-48
2023/11/22 12:13:32;;;;;;;3.27;1.90;;;4.70;99.90;;;;;;5058415;28;20595;-49
2023/11/22 12:16:02;;;;;;;2.17;1.77;;;4.70;99.90;;;;;;5054987;28;20199;-52
2023/11/22 12:18:31;;;;;;;2.60;1.50;;;4.70;99.90;;;;;;5062911;28;20218;-47
2023/11/22 12:21:00;;;;;;;1.87;1.60;;;4.70;99.90;;;;;;5055247;28;20470;-51
2023/11/22 12:23:28;;;;;;;3.00;1.57;;;4.70;99.90;;;;;;5053672;28;20276;-48
2023/11/22 12:25:56;;;;;;;1.43;1.03;;;4.70;99.90;;;;;;5050049;28;20207;-47
2023/11/22 12:28:25;;;;;;;2.47;1.40;;;4.80;99.90;;;;;;5031464;28;20214;-49
2023/11/22 12:30:52;;;;;;;4.37;1.57;;;4.80;99.90;;;;;;5051675;28;20244;-48
2023/11/22 12:33:19;;;;;;;0.97;0.93;;;4.80;99.90;;;;;;5062838;28;20226;-51
2023/11/22 12:35:46;;;;;;;1.77;0.90;;;4.80;99.90;;;;;;5052259;28;20519;-48
2023/11/22 12:38:14;;;;;;;1.30;0.90;;;4.70;99.90;;;;;;5053707;28;20288;-49
2023/11/22 12:40:45;;;;;;;0.70;0.67;;;4.70;99.90;;;;;;5052414;28;20739;-48
2023/11/22 12:43:14;;;;;;;0.87;0.70;;;4.60;99.90;;;;;;5038011;28;20267;-51
2023/11/22 12:45:43;;;;;;;0.40;0.40;;;4.60;99.90;;;;;;5051243;28;20197;-48
2023/11/22 12:48:29;;;;;;;3.43;0.57;;;4.60;99.90;;;;;;5061223;28;20199;-48
2023/11/22 12:50:57;;;;;;;0.93;0.70;;;4.60;99.90;;;;;;5040319;28;20548;-49
2023/11/22 12:53:27;;;;;;;0.87;0.80;;;4.60;99.90;;;;;;5063096;28;20218;-47
2023/11/22 12:55:56;;;;;;;0.60;0.60;;;4.50;99.90;;;;;;5052943;28;20214;-47
2023/11/22 12:58:24;;;;;;;0.43;0.43;;;4.50;99.90;;;;;;5052981;28;20778;-47
2023/11/22 13:00:57;;;;;;;0.80;0.80;;;4.50;99.90;;;;;;5042939;28;20845;-50